LGEL

Details ICAO LGEL
Name ELEFSIS
Region Greece
Timezone Europe/Athens (UTC+3.0)
Plans Departing 41
Arriving 28
Stats Elevation 143 ft / 44 m (AMSL)
Location 38.063917° 23.556041°
Runways 1
Magnetic Variation 4.491° E
Sunrise 2018-05-24 03:10:17 UTC / 2018-05-24 06:10:17 Local
Sunset 2018-05-24 17:37:48 UTC / 2018-05-24 20:37:48 Local
Advertisement - Login to hide

Runways

ID Width Length Bearing (true) Bearing (mag) Surface Threshold Offset Overrun Length
18 131 ft / 40 m 8,940 ft / 2,725 m 179.85° 175.36° Asphalt 0 ft / 0 m 830 ft / 253 m
36 131 ft / 40 m 8,940 ft / 2,725 m 359.85° 355.36° Asphalt 198 ft / 60 m 150 ft / 46 m

Map

Weather


0- 5 10 15 20 25 30 35+ Temperature / ° C

Clouds and Precipitation
Forecast for 2018-05-24 12:00 UTC. Updated 3 hours ago

Ground ~20,000 ft ~40,000 ft Winds

METAR

LGEL 241350Z 31010KT 9999 FEW018TCU SCT025 BKN070 26/16 Q1010

TAF

TAF LGEL 241100Z 2412/2512 34012KT 9999 SCT020 SCT070 PROB40 TEMPO 2412/2418 5000 RA SCT018 BKN030 PROB30 TEMPO 2412/2417 4000 TSRA SCT010 FEW018CB BKN030

Frequencies

Tower 122.10 MHz TWR
Approach 119.10 MHz ATHINAI APP
Tower 120.15 MHz TWR
Approach 129.55 MHz ATHINAI APP
Warning: Do not use this data for real-world aviation or navigation. No guarantee of current accuracy is given.